Time;durP1;ratioP1;P1;durP2;ratioP2;P2;SDS_P1;SDS_P2;PMS_P1;PMS_P2;Temp;Humidity;BMP_temperature;BMP_pressure;BME280_temperature;BME280_humidity;BME280_pressure;Samples;Min_cycle;Max_cycle;Signal;HPM_P1;HPM_P2
2022/10/17 00:00:43;;;;;;;24.20;16.98;;;11.70;99.90;;;;;;5040319;28;20037;-69
2022/10/17 00:03:09;;;;;;;20.08;15.73;;;11.70;99.90;;;;;;5046536;28;20060;-69
2022/10/17 00:05:43;;;;;;;30.65;16.77;;;11.60;99.90;;;;;;5047668;28;20138;-69
2022/10/17 00:08:11;;;;;;;34.72;16.63;;;11.60;99.90;;;;;;5047542;28;20162;-69
2022/10/17 00:10:38;;;;;;;25.02;16.63;;;11.70;99.90;;;;;;5047084;28;20130;-69
2022/10/17 00:13:04;;;;;;;24.23;15.38;;;11.60;99.90;;;;;;5032295;28;20044;-70
2022/10/17 00:15:31;;;;;;;21.80;13.75;;;11.60;99.90;;;;;;5045368;28;20102;-70
2022/10/17 00:17:57;;;;;;;21.80;14.82;;;11.70;99.90;;;;;;5045930;28;20056;-69
2022/10/17 00:20:22;;;;;;;25.80;15.63;;;11.70;99.90;;;;;;5046200;28;20053;-69
2022/10/17 00:22:48;;;;;;;31.75;16.33;;;11.80;99.90;;;;;;5045499;28;20577;-69
2022/10/17 00:25:14;;;;;;;24.00;14.35;;;11.80;99.90;;;;;;5047066;28;20049;-69
2022/10/17 00:27:41;;;;;;;27.30;16.58;;;12.10;99.90;;;;;;5047423;28;20697;-69
2022/10/17 00:30:12;;;;;;;35.88;16.10;;;11.80;99.90;;;;;;5063138;28;20436;-69
2022/10/17 00:32:38;;;;;;;28.70;16.17;;;11.80;99.90;;;;;;5049810;28;20056;-69
2022/10/17 00:35:04;;;;;;;27.90;17.80;;;11.80;99.90;;;;;;5058230;28;20417;-69
2022/10/17 00:37:30;;;;;;;33.40;17.13;;;11.90;99.90;;;;;;5047497;28;20052;-70
2022/10/17 00:39:56;;;;;;;23.15;17.20;;;11.80;99.90;;;;;;5046982;28;20045;-69
2022/10/17 00:42:23;;;;;;;31.25;17.85;;;11.90;99.90;;;;;;5058358;28;20414;-68
2022/10/17 00:44:49;;;;;;;24.20;17.13;;;11.80;99.90;;;;;;5046947;28;20501;-69
2022/10/17 00:47:20;;;;;;;36.10;16.75;;;11.80;99.90;;;;;;5042605;28;20044;-69
2022/10/17 00:49:47;;;;;;;38.85;18.92;;;11.80;99.90;;;;;;5039618;28;20409;-70
2022/10/17 00:52:16;;;;;;;23.88;16.83;;;11.90;99.90;;;;;;5047148;28;20045;-69
2022/10/17 00:54:48;;;;;;;31.48;17.20;;;11.90;99.90;;;;;;5047301;28;20068;-68
2022/10/17 00:57:15;;;;;;;31.35;18.58;;;11.90;99.90;;;;;;5046505;28;20091;-69
2022/10/17 00:59:45;;;;;;;25.80;17.88;;;12.00;99.90;;;;;;5047548;28;20410;-69
2022/10/17 01:02:15;;;;;;;29.70;18.08;;;12.00;99.90;;;;;;5045759;28;20049;-69
2022/10/17 01:04:45;;;;;;;32.30;19.15;;;12.00;99.90;;;;;;5046421;28;20078;-69
2022/10/17 01:07:12;;;;;;;28.60;19.65;;;12.00;99.90;;;;;;5045626;28;20114;-69
2022/10/17 01:09:39;;;;;;;31.92;18.10;;;12.00;99.90;;;;;;5047240;28;20098;-69
2022/10/17 01:12:23;;;;;;;41.33;20.48;;;12.00;99.90;;;;;;5044711;28;20053;-69
2022/10/17 01:15:26;;;;;;;30.00;20.23;;;12.00;99.90;;;;;;5045430;28;20045;-68
2022/10/17 01:18:27;;;;;;;33.58;19.88;;;12.10;99.90;;;;;;5035684;28;20056;-69
2022/10/17 01:21:14;;;;;;;28.13;18.55;;;12.00;99.90;;;;;;5041271;28;20056;-69
2022/10/17 01:24:01;;;;;;;34.42;20.25;;;12.00;99.90;;;;;;5056939;28;20045;-68
2022/10/17 01:26:27;;;;;;;32.08;20.25;;;12.10;99.90;;;;;;5046023;28;20116;-69
2022/10/17 01:29:21;;;;;;;40.50;21.88;;;12.30;99.90;;;;;;5046969;28;20132;-68
2022/10/17 01:31:53;;;;;;;31.63;21.90;;;12.20;99.90;;;;;;5046499;28;20045;-69
2022/10/17 01:34:45;;;;;;;33.50;21.63;;;12.10;99.90;;;;;;5062892;28;20045;-69
2022/10/17 01:37:31;;;;;;;30.33;20.00;;;12.20;99.90;;;;;;5052018;28;20053;-69
2022/10/17 01:40:11;;;;;;;39.50;21.30;;;12.30;99.90;;;;;;5044645;28;20091;-69
2022/10/17 01:42:47;;;;;;;31.80;21.25;;;12.30;99.90;;;;;;5046834;28;20045;-69
2022/10/17 01:45:39;;;;;;;36.88;20.60;;;12.20;99.90;;;;;;5044183;28;20067;-69
2022/10/17 01:48:13;;;;;;;32.90;20.02;;;12.30;99.90;;;;;;5045575;28;20056;-69
2022/10/17 01:50:44;;;;;;;26.35;18.55;;;12.40;99.90;;;;;;5032876;28;20045;-69
2022/10/17 01:53:17;;;;;;;32.55;19.85;;;12.20;99.90;;;;;;5047238;28;20045;-69
2022/10/17 01:55:47;;;;;;;29.92;21.83;;;12.20;99.90;;;;;;5045592;28;20160;-69
2022/10/17 01:58:35;;;;;;;42.75;22.00;;;12.20;99.90;;;;;;5049323;28;20044;-69
2022/10/17 02:01:05;;;;;;;35.17;21.45;;;12.20;99.90;;;;;;5039711;28;20076;-70
2022/10/17 02:03:33;;;;;;;27.67;20.15;;;12.20;99.90;;;;;;5040621;28;20130;-69
2022/10/17 02:05:59;;;;;;;28.35;20.55;;;12.20;99.90;;;;;;5050567;28;20134;-69
2022/10/17 02:08:43;;;;;;;24.30;19.73;;;12.20;99.90;;;;;;5049005;28;20052;-69
2022/10/17 02:11:23;;;;;;;31.48;20.95;;;12.10;99.90;;;;;;5048871;28;20055;-69
2022/10/17 02:14:17;;;;;;;31.33;21.27;;;12.10;99.90;;;;;;5049868;28;20114;-69
2022/10/17 02:17:07;;;;;;;24.17;19.17;;;12.10;99.90;;;;;;5049875;28;20448;-69
2022/10/17 02:19:58;;;;;;;31.20;19.15;;;12.10;99.90;;;;;;5048334;28;20060;-69
2022/10/17 02:22:33;;;;;;;33.80;20.17;;;12.10;99.90;;;;;;5049768;28;20056;-69
2022/10/17 02:25:08;;;;;;;24.45;19.17;;;12.10;99.90;;;;;;5049870;28;20418;-69
2022/10/17 02:28:02;;;;;;;25.58;19.20;;;12.10;99.90;;;;;;5049255;28;20053;-69
2022/10/17 02:31:03;;;;;;;23.58;18.63;;;12.00;99.90;;;;;;5043889;28;20053;-69
2022/10/17 02:33:33;;;;;;;30.27;19.33;;;12.00;99.90;;;;;;5024448;28;20053;-69
2022/10/17 02:36:05;;;;;;;25.30;19.85;;;12.00;99.90;;;;;;5049856;28;20119;-69
2022/10/17 02:38:33;;;;;;;26.77;19.25;;;12.00;99.90;;;;;;5049584;28;20083;-69
2022/10/17 02:40:59;;;;;;;32.08;21.10;;;12.00;99.90;;;;;;5048484;28;20098;-69
2022/10/17 02:43:25;;;;;;;24.02;19.70;;;12.00;99.90;;;;;;5048536;28;20087;-69
2022/10/17 02:45:52;;;;;;;27.70;20.67;;;12.00;99.90;;;;;;5048577;28;20080;-69
2022/10/17 02:48:24;;;;;;;26.67;21.25;;;11.90;99.90;;;;;;5051999;28;20044;-69
2022/10/17 02:51:21;;;;;;;30.20;22.02;;;12.00;99.90;;;;;;5035585;28;20053;-69
2022/10/17 02:53:58;;;;;;;43.30;19.95;;;12.00;99.90;;;;;;5041470;28;20052;-69
2022/10/17 02:56:27;;;;;;;28.88;19.85;;;12.00;99.90;;;;;;5043389;28;20049;-70
2022/10/17 02:58:56;;;;;;;27.27;20.98;;;11.90;99.90;;;;;;5048118;28;20049;-69
2022/10/17 03:01:24;;;;;;;29.83;21.00;;;12.00;99.90;;;;;;5042195;28;20048;-69
2022/10/17 03:03:49;;;;;;;39.80;21.73;;;11.90;99.90;;;;;;5046669;28;20099;-70
2022/10/17 03:06:15;;;;;;;30.25;22.60;;;12.00;99.90;;;;;;5048245;28;20040;-69
2022/10/17 03:08:41;;;;;;;28.23;21.70;;;12.00;99.90;;;;;;5047518;28;20116;-69
2022/10/17 03:11:06;;;;;;;30.58;22.48;;;12.00;99.90;;;;;;5048350;28;20037;-69
2022/10/17 03:13:32;;;;;;;22.83;19.15;;;12.00;99.90;;;;;;5047378;28;20441;-70
2022/10/17 03:15:58;;;;;;;30.45;22.25;;;12.00;99.90;;;;;;5041927;28;20069;-69
2022/10/17 03:18:23;;;;;;;24.60;20.63;;;12.10;99.90;;;;;;5047074;28;20570;-69
2022/10/17 03:20:49;;;;;;;34.10;22.95;;;12.00;99.90;;;;;;5046949;28;20143;-69
2022/10/17 03:23:15;;;;;;;28.15;21.58;;;11.90;99.90;;;;;;5048538;28;20253;-69
2022/10/17 03:25:40;;;;;;;32.03;22.02;;;12.00;99.90;;;;;;5049027;28;20057;-69
2022/10/17 03:28:06;;;;;;;35.15;23.55;;;12.00;99.90;;;;;;5048574;28;20051;-70
2022/10/17 03:30:32;;;;;;;32.30;23.00;;;12.00;99.90;;;;;;5048174;28;20045;-69
2022/10/17 03:33:00;;;;;;;39.58;24.05;;;12.00;99.90;;;;;;5048738;28;20037;-69
2022/10/17 03:35:26;;;;;;;;;;;12.00;99.90;;;;;;5046303;28;20041;-70
2022/10/17 03:37:54;;;;;;;37.88;23.35;;;12.00;99.90;;;;;;5046930;28;19932;-69
2022/10/17 03:40:19;;;;;;;33.83;23.70;;;12.10;99.90;;;;;;5047382;28;20049;-69
2022/10/17 03:42:45;;;;;;;37.83;26.58;;;12.10;99.90;;;;;;5043239;28;20037;-69
2022/10/17 03:45:10;;;;;;;36.65;26.35;;;12.10;99.90;;;;;;5048299;28;20048;-70
2022/10/17 03:47:36;;;;;;;35.70;24.85;;;12.10;99.90;;;;;;5047923;28;20043;-69
2022/10/17 03:50:02;;;;;;;36.83;24.45;;;12.10;99.90;;;;;;5047895;28;20036;-69
2022/10/17 03:52:28;;;;;;;35.13;23.75;;;12.20;99.90;;;;;;5043753;28;20084;-69
2022/10/17 03:54:53;;;;;;;38.03;26.85;;;12.20;99.90;;;;;;5046142;28;20073;-69
2022/10/17 03:57:19;;;;;;;39.63;27.05;;;12.20;99.90;;;;;;5044843;28;20056;-69
2022/10/17 03:59:45;;;;;;;36.20;26.70;;;12.20;99.90;;;;;;5043284;28;20048;-69
2022/10/17 04:02:10;;;;;;;43.10;26.70;;;12.20;99.90;;;;;;5047428;28;20401;-69
2022/10/17 04:04:36;;;;;;;38.45;29.33;;;12.30;99.90;;;;;;5046741;28;20124;-69
2022/10/17 04:07:02;;;;;;;41.33;28.98;;;12.30;99.90;;;;;;5051413;28;20405;-69
2022/10/17 04:09:27;;;;;;;43.42;30.20;;;12.30;99.90;;;;;;5046495;28;20079;-69
2022/10/17 04:11:53;;;;;;;40.00;28.45;;;12.30;99.90;;;;;;5047235;28;20072;-69
2022/10/17 04:14:19;;;;;;;41.83;27.80;;;12.40;99.90;;;;;;5047591;28;20119;-69
2022/10/17 04:16:45;;;;;;;41.30;27.48;;;12.50;99.90;;;;;;5047821;28;20055;-69
2022/10/17 04:19:12;;;;;;;42.63;29.40;;;12.40;99.90;;;;;;5044577;28;20057;-69
2022/10/17 04:21:38;;;;;;;42.33;28.17;;;12.50;99.90;;;;;;5047225;28;20076;-69
2022/10/17 04:24:04;;;;;;;37.38;27.50;;;12.50;99.90;;;;;;5028681;28;20095;-69
2022/10/17 04:26:29;;;;;;;39.38;29.17;;;12.40;99.90;;;;;;5045442;28;20076;-69
2022/10/17 04:28:55;;;;;;;45.33;30.08;;;12.40;99.90;;;;;;5046342;28;20099;-68
2022/10/17 04:31:21;;;;;;;39.65;28.98;;;12.50;99.90;;;;;;5047046;28;20518;-69
2022/10/17 04:33:48;;;;;;;44.92;28.50;;;12.40;99.90;;;;;;5046271;28;20056;-69
2022/10/17 04:36:16;;;;;;;42.75;28.02;;;12.40;99.90;;;;;;5046687;28;20032;-69
2022/10/17 04:38:42;;;;;;;47.25;29.15;;;12.40;99.90;;;;;;5046132;28;20124;-69
2022/10/17 04:41:11;;;;;;;45.83;30.77;;;12.40;99.90;;;;;;5047203;28;20124;-69
2022/10/17 04:43:38;;;;;;;43.33;28.67;;;12.30;99.90;;;;;;5046520;28;20551;-69
2022/10/17 04:46:07;;;;;;;43.13;29.30;;;12.00;99.90;;;;;;5045662;28;20048;-69
2022/10/17 04:48:32;;;;;;;45.50;28.67;;;12.40;99.90;;;;;;5045399;28;20045;-69
2022/10/17 04:51:04;;;;;;;38.80;28.48;;;12.30;99.90;;;;;;5045983;28;20055;-69
2022/10/17 04:53:31;;;;;;;43.42;28.50;;;12.30;99.90;;;;;;5047369;28;20045;-69
2022/10/17 04:55:57;;;;;;;41.07;27.77;;;12.30;99.90;;;;;;5029651;28;20110;-69
2022/10/17 04:58:23;;;;;;;43.95;28.63;;;12.30;99.90;;;;;;5061121;28;20045;-69
2022/10/17 05:00:49;;;;;;;44.05;29.55;;;12.30;99.90;;;;;;5047135;28;20127;-70
2022/10/17 05:03:14;;;;;;;41.40;30.17;;;12.30;99.90;;;;;;5052616;28;20057;-69
2022/10/17 05:05:41;;;;;;;41.95;30.90;;;12.30;99.90;;;;;;5062729;28;20059;-69
2022/10/17 05:08:08;;;;;;;43.30;30.50;;;12.30;99.90;;;;;;5045954;28;20493;-69
2022/10/17 05:10:39;;;;;;;50.37;33.10;;;12.30;99.90;;;;;;5047264;28;20378;-69
2022/10/17 05:13:05;;;;;;;44.70;32.08;;;12.30;99.90;;;;;;5047325;28;20201;-69
2022/10/17 05:15:31;;;;;;;45.90;32.28;;;12.30;99.90;;;;;;5046459;28;20450;-69
2022/10/17 05:17:57;;;;;;;60.78;36.00;;;12.40;99.90;;;;;;5047025;28;20055;-69
2022/10/17 05:20:23;;;;;;;56.70;35.83;;;12.40;99.90;;;;;;5046750;28;20060;-69
2022/10/17 05:22:49;;;;;;;53.50;37.33;;;12.50;99.90;;;;;;5045319;28;20071;-69
2022/10/17 05:25:15;;;;;;;59.80;38.92;;;12.50;99.90;;;;;;5038829;28;20525;-69
2022/10/17 05:27:40;;;;;;;53.58;36.65;;;12.60;99.90;;;;;;5049392;28;20049;-70
2022/10/17 05:30:07;;;;;;;63.42;37.63;;;12.60;99.90;;;;;;5046037;28;20037;-69
2022/10/17 05:32:33;;;;;;;62.72;40.55;;;12.60;99.90;;;;;;5049211;28;20748;-69
2022/10/17 05:34:58;;;;;;;62.45;38.42;;;12.80;99.90;;;;;;5050335;28;20045;-70
2022/10/17 05:37:24;;;;;;;65.47;38.72;;;12.70;99.90;;;;;;5050753;28;20525;-69
2022/10/17 05:39:50;;;;;;;59.28;37.28;;;12.80;99.90;;;;;;5049259;28;20517;-69
2022/10/17 05:42:15;;;;;;;59.65;38.13;;;12.80;99.90;;;;;;5048272;28;20557;-69
2022/10/17 05:44:41;;;;;;;63.15;38.88;;;12.90;99.90;;;;;;5061663;28;20060;-69
2022/10/17 05:47:08;;;;;;;61.35;38.55;;;12.90;99.90;;;;;;5037771;28;20575;-69
2022/10/17 05:49:33;;;;;;;61.55;40.22;;;12.90;99.90;;;;;;5048876;28;20127;-69
2022/10/17 05:52:00;;;;;;;61.25;37.97;;;13.10;99.90;;;;;;5049973;28;20468;-69
2022/10/17 05:54:26;;;;;;;63.08;41.97;;;13.10;99.90;;;;;;5050700;28;20083;-69
2022/10/17 05:56:53;;;;;;;61.15;37.17;;;13.30;99.90;;;;;;5049703;28;20052;-69
2022/10/17 05:59:19;;;;;;;61.85;39.60;;;13.30;99.90;;;;;;5065152;28;20041;-69
2022/10/17 06:01:44;;;;;;;61.47;35.30;;;13.40;99.90;;;;;;5049161;28;20115;-69
2022/10/17 06:04:11;;;;;;;58.72;36.40;;;13.50;99.90;;;;;;5051167;28;20505;-69
2022/10/17 06:06:38;;;;;;;64.57;36.95;;;13.60;99.90;;;;;;5049808;28;20043;-68
2022/10/17 06:09:04;;;;;;;60.17;36.47;;;13.70;99.90;;;;;;5049098;28;20618;-69
2022/10/17 06:11:30;;;;;;;61.80;36.30;;;13.70;99.90;;;;;;5049760;28;20041;-69
2022/10/17 06:13:56;;;;;;;53.33;35.22;;;13.70;99.90;;;;;;5049126;28;20647;-69
2022/10/17 06:16:22;;;;;;;48.15;34.33;;;13.70;99.90;;;;;;5048897;28;20200;-69
2022/10/17 06:18:48;;;;;;;49.45;35.58;;;13.80;99.90;;;;;;5047669;28;20063;-69
2022/10/17 06:21:17;;;;;;;55.90;37.72;;;13.90;99.90;;;;;;5049010;28;20763;-69
2022/10/17 06:23:43;;;;;;;45.78;32.60;;;14.00;99.90;;;;;;5047469;28;20099;-69
2022/10/17 06:26:10;;;;;;;49.38;32.58;;;14.00;99.90;;;;;;5048112;28;20052;-69
2022/10/17 06:28:35;;;;;;;50.00;32.20;;;14.20;99.90;;;;;;5047985;28;20120;-70
2022/10/17 06:31:06;;;;;;;48.53;32.10;;;14.00;99.90;;;;;;5049078;28;20123;-70
2022/10/17 06:33:32;;;;;;;45.13;32.00;;;14.10;99.90;;;;;;5061346;28;20076;-70
2022/10/17 06:35:57;;;;;;;46.45;30.70;;;14.10;99.90;;;;;;5046771;28;20178;-70
2022/10/17 06:38:23;;;;;;;49.42;31.17;;;14.20;99.90;;;;;;5048582;28;20049;-70
2022/10/17 06:40:49;;;;;;;57.03;34.25;;;14.20;99.90;;;;;;5059397;28;20460;-70
2022/10/17 06:43:16;;;;;;;43.63;30.38;;;14.20;99.90;;;;;;5048946;28;20080;-70
2022/10/17 06:45:45;;;;;;;44.47;30.20;;;14.30;99.90;;;;;;5049963;28;20588;-70
2022/10/17 06:48:10;;;;;;;;;;;14.30;99.90;;;;;;5045566;28;20104;-70
2022/10/17 06:50:36;;;;;;;50.80;30.02;;;14.40;99.90;;;;;;5050249;28;20305;-70
2022/10/17 06:53:02;;;;;;;44.05;30.50;;;14.40;99.90;;;;;;5049711;28;20048;-70
2022/10/17 06:55:28;;;;;;;59.63;31.88;;;14.40;99.90;;;;;;5044757;28;20583;-70
2022/10/17 06:57:54;;;;;;;45.22;28.13;;;14.40;99.90;;;;;;5042725;28;20052;-70
2022/10/17 07:00:22;;;;;;;55.45;27.88;;;14.40;99.90;;;;;;5045377;28;20048;-70
2022/10/17 07:02:48;;;;;;;44.05;28.98;;;14.50;99.90;;;;;;5045701;28;20041;-70
2022/10/17 07:05:14;;;;;;;48.25;27.52;;;14.50;99.90;;;;;;5044269;28;20109;-70
2022/10/17 07:07:41;;;;;;;38.08;27.70;;;14.60;99.90;;;;;;5042566;28;20417;-70
2022/10/17 07:10:08;;;;;;;48.65;28.58;;;14.60;99.90;;;;;;5060349;28;20082;-70
2022/10/17 07:12:34;;;;;;;49.00;26.85;;;14.70;99.90;;;;;;5048104;28;20052;-70
2022/10/17 07:15:00;;;;;;;43.40;27.55;;;14.70;99.90;;;;;;5047874;28;20057;-70
2022/10/17 07:17:26;;;;;;;39.00;29.15;;;14.80;99.90;;;;;;5045833;28;20048;-70
2022/10/17 07:19:51;;;;;;;45.95;27.08;;;14.90;99.90;;;;;;5046553;28;20057;-70
2022/10/17 07:22:17;;;;;;;45.90;27.63;;;14.90;99.90;;;;;;5048528;28;20669;-70
2022/10/17 07:24:43;;;;;;;36.75;26.10;;;15.00;99.90;;;;;;5030468;28;20509;-69
2022/10/17 07:27:08;;;;;;;39.83;26.00;;;15.10;99.90;;;;;;5040494;28;20120;-70
2022/10/17 07:29:34;;;;;;;44.28;27.45;;;15.00;99.90;;;;;;5043841;28;20037;-70
2022/10/17 07:32:02;;;;;;;37.05;26.17;;;15.10;99.90;;;;;;5046429;28;20164;-70
2022/10/17 07:34:30;;;;;;;45.47;26.83;;;15.10;99.90;;;;;;5035276;28;20072;-70
2022/10/17 07:36:56;;;;;;;44.35;27.75;;;15.30;99.90;;;;;;5042628;28;20410;-70
2022/10/17 07:39:21;;;;;;;35.30;23.92;;;15.20;99.90;;;;;;5042162;28;20053;-70
2022/10/17 07:41:50;;;;;;;42.00;25.92;;;15.20;99.90;;;;;;5055076;28;20068;-70
2022/10/17 07:44:16;;;;;;;39.90;26.23;;;15.40;99.90;;;;;;5055115;28;20052;-70
2022/10/17 07:46:41;;;;;;;45.53;25.23;;;15.40;99.90;;;;;;5040918;28;20401;-70
2022/10/17 07:49:07;;;;;;;44.67;25.80;;;15.50;99.90;;;;;;5048856;28;20041;-70
2022/10/17 07:51:33;;;;;;;37.75;25.33;;;15.50;99.90;;;;;;5045795;28;20076;-70
2022/10/17 07:53:58;;;;;;;35.78;24.00;;;15.70;99.90;;;;;;5035435;28;20041;-70
2022/10/17 07:56:24;;;;;;;39.95;23.52;;;15.90;99.90;;;;;;5039203;28;20485;-68
2022/10/17 07:58:51;;;;;;;37.65;22.90;;;15.80;99.90;;;;;;5047848;28;20493;-70
2022/10/17 08:01:17;;;;;;;38.77;23.17;;;15.80;99.90;;;;;;5063535;28;20123;-70
2022/10/17 08:03:45;;;;;;;34.55;22.27;;;15.80;99.90;;;;;;5040351;28;20091;-70
2022/10/17 08:06:11;;;;;;;36.10;21.60;;;15.90;99.90;;;;;;5040413;28;20577;-69
2022/10/17 08:08:36;;;;;;;29.02;21.65;;;15.90;99.90;;;;;;5052823;28;20394;-70
2022/10/17 08:11:05;;;;;;;29.73;20.08;;;16.10;99.90;;;;;;5047421;28;20048;-69
2022/10/17 08:13:31;;;;;;;33.03;21.60;;;16.10;99.90;;;;;;5051085;28;20405;-69
2022/10/17 08:16:01;;;;;;;45.60;21.80;;;16.20;99.90;;;;;;5045555;28;20056;-70
2022/10/17 08:18:27;;;;;;;32.05;20.80;;;16.50;99.90;;;;;;5041101;28;20049;-70
2022/10/17 08:20:53;;;;;;;36.00;20.65;;;16.40;99.90;;;;;;5038986;28;20164;-70
2022/10/17 08:23:19;;;;;;;31.42;22.05;;;16.50;99.90;;;;;;5044138;28;20560;-70
2022/10/17 08:25:45;;;;;;;31.33;21.75;;;16.60;99.90;;;;;;5045201;28;20087;-70
2022/10/17 08:28:11;;;;;;;46.88;23.35;;;16.60;99.90;;;;;;5059957;28;20132;-70
2022/10/17 08:30:37;;;;;;;26.40;20.52;;;16.50;99.90;;;;;;5047739;28;20131;-70
2022/10/17 08:33:04;;;;;;;35.28;22.23;;;16.60;99.90;;;;;;5046053;28;20144;-70
2022/10/17 08:35:30;;;;;;;33.28;19.85;;;16.70;99.90;;;;;;5045312;28;20040;-70
2022/10/17 08:38:00;;;;;;;27.50;20.13;;;16.70;99.90;;;;;;5040876;28;20041;-70
2022/10/17 08:40:29;;;;;;;37.75;21.77;;;16.70;99.90;;;;;;5047621;28;20413;-70
2022/10/17 08:43:09;;;;;;;36.35;21.95;;;16.70;99.90;;;;;;5042890;28;20053;-69
2022/10/17 08:45:47;;;;;;;27.23;19.40;;;16.70;99.90;;;;;;5041532;28;20049;-70
2022/10/17 08:48:19;;;;;;;32.70;21.63;;;16.70;99.90;;;;;;5047452;28;20085;-70
2022/10/17 08:50:56;;;;;;;33.63;22.15;;;16.70;99.90;;;;;;5060169;28;20062;-70
2022/10/17 08:53:30;;;;;;;38.08;22.30;;;16.60;99.90;;;;;;5043993;28;20057;-70
2022/10/17 08:55:58;;;;;;;37.00;21.92;;;16.70;99.90;;;;;;5043708;28;20040;-70
2022/10/17 08:58:37;;;;;;;27.25;20.17;;;16.70;99.90;;;;;;5046422;28;20055;-70
2022/10/17 09:01:22;;;;;;;34.50;20.88;;;16.70;99.90;;;;;;5043001;28;20045;-70
2022/10/17 09:03:51;;;;;;;32.63;20.00;;;16.70;99.90;;;;;;5045282;28;20056;-70
2022/10/17 09:06:36;;;;;;;36.30;21.63;;;16.70;99.90;;;;;;5055816;28;20105;-70
2022/10/17 09:09:34;;;;;;;57.38;22.23;;;16.70;99.90;;;;;;5057593;28;20052;-69
2022/10/17 09:12:21;;;;;;;36.08;21.20;;;16.80;99.90;;;;;;5041821;28;20082;-70
2022/10/17 09:15:15;;;;;;;32.53;19.38;;;16.80;99.90;;;;;;5044380;28;20089;-70
2022/10/17 09:17:54;;;;;;;32.50;21.80;;;16.80;99.90;;;;;;5043504;28;20053;-71
2022/10/17 09:20:32;;;;;;;34.67;20.52;;;17.00;99.90;;;;;;5047764;28;20174;-71
2022/10/17 09:23:09;;;;;;;28.63;20.67;;;16.80;99.90;;;;;;5044137;28;20106;-70
2022/10/17 09:29:20;;;;;;;32.47;20.80;;;16.80;99.90;;;;;;4914203;29;20495;-70
2022/10/17 09:32:10;;;;;;;25.17;20.88;;;16.70;99.90;;;;;;4930634;29;20415;-70
2022/10/17 09:34:35;;;;;;;32.15;21.27;;;16.70;99.90;;;;;;4930882;29;20059;-70
2022/10/17 09:37:01;;;;;;;31.67;20.63;;;16.90;99.90;;;;;;4928725;29;20043;-70
2022/10/17 09:39:31;;;;;;;40.95;22.10;;;16.70;99.90;;;;;;4936188;29;20388;-70
2022/10/17 09:42:00;;;;;;;31.13;22.08;;;16.70;99.90;;;;;;4932417;29;20055;-70
2022/10/17 09:44:58;;;;;;;36.08;24.10;;;16.70;99.90;;;;;;4932497;29;20091;-69
2022/10/17 09:47:27;;;;;;;31.95;19.35;;;16.80;99.90;;;;;;4932772;28;20062;-69
2022/10/17 09:49:53;;;;;;;33.53;21.10;;;16.80;99.90;;;;;;4931073;29;20059;-69
2022/10/17 09:52:38;;;;;;;29.85;20.33;;;16.90;99.90;;;;;;4935652;28;20044;-69
2022/10/17 09:55:19;;;;;;;30.30;20.85;;;16.90;99.90;;;;;;4926597;29;20059;-69
2022/10/17 09:58:05;;;;;;;28.58;19.35;;;16.90;99.90;;;;;;4931549;29;20054;-69
2022/10/17 10:00:35;;;;;;;27.77;21.92;;;17.00;99.90;;;;;;4930571;29;20052;-68
2022/10/17 10:03:17;;;;;;;36.13;21.48;;;16.90;99.90;;;;;;4920354;29;20059;-68
2022/10/17 10:05:59;;;;;;;36.38;20.38;;;16.90;99.90;;;;;;4941840;28;20050;-69
2022/10/17 10:08:31;;;;;;;36.05;22.17;;;16.80;99.90;;;;;;4932107;29;20476;-68
2022/10/17 10:11:03;;;;;;;32.70;23.73;;;16.90;99.90;;;;;;4934121;28;20432;-69
2022/10/17 10:13:31;;;;;;;27.02;20.77;;;16.80;99.90;;;;;;4933469;28;20457;-68
2022/10/17 10:16:14;;;;;;;32.92;20.95;;;16.80;99.90;;;;;;4931072;29;20544;-68
2022/10/17 10:18:40;;;;;;;27.38;21.27;;;16.80;99.90;;;;;;4920361;29;20522;-67
2022/10/17 10:21:19;;;;;;;29.55;20.83;;;16.70;99.90;;;;;;4949027;28;20039;-68
2022/10/17 10:24:05;;;;;;;30.98;23.00;;;16.80;99.90;;;;;;4932010;29;20059;-68
2022/10/17 10:26:41;;;;;;;39.58;23.33;;;16.80;99.90;;;;;;4927873;29;20570;-68
2022/10/17 10:29:29;;;;;;;35.78;24.52;;;16.60;99.90;;;;;;4932380;29;20091;-67
2022/10/17 10:32:05;;;;;;;34.42;22.80;;;16.70;99.90;;;;;;4924658;29;20050;-72
2022/10/17 10:34:34;;;;;;;35.30;23.70;;;16.60;99.90;;;;;;4932716;29;20047;-68
2022/10/17 10:37:24;;;;;;;32.78;24.15;;;16.70;99.90;;;;;;4931666;29;20115;-67
2022/10/17 10:39:53;;;;;;;47.05;31.85;;;16.70;99.90;;;;;;4932815;29;20047;-68
2022/10/17 10:42:29;;;;;;;54.53;26.05;;;16.80;99.90;;;;;;4934257;29;20130;-67
2022/10/17 10:45:00;;;;;;;40.88;25.58;;;16.70;99.90;;;;;;4928385;29;20130;-67
2022/10/17 10:47:30;;;;;;;33.53;23.55;;;16.80;99.90;;;;;;4932436;29;20062;-68
2022/10/17 10:50:07;;;;;;;38.22;25.48;;;16.80;99.90;;;;;;4929322;29;20511;-68
2022/10/17 10:53:14;;;;;;;35.78;24.15;;;16.80;99.90;;;;;;4923987;29;20046;-67
2022/10/17 10:56:09;;;;;;;35.05;25.60;;;16.80;99.90;;;;;;4933907;29;20423;-67
2022/10/17 10:59:03;;;;;;;43.65;24.75;;;17.10;99.90;;;;;;4946481;28;20047;-68
2022/10/17 11:01:44;;;;;;;40.58;24.27;;;16.80;99.90;;;;;;4932988;29;20365;-68
2022/10/17 11:04:25;;;;;;;39.10;25.98;;;16.80;99.90;;;;;;4930568;29;20079;-68
2022/10/17 11:06:56;;;;;;;35.30;26.35;;;16.80;99.90;;;;;;4930529;29;20382;-68
2022/10/17 11:09:49;;;;;;;38.67;24.65;;;16.80;99.90;;;;;;4930745;29;20048;-68
2022/10/17 11:12:30;;;;;;;53.95;27.77;;;16.80;99.90;;;;;;4939616;28;20043;-68
2022/10/17 11:15:46;;;;;;;33.03;25.13;;;16.80;99.90;;;;;;4933814;29;20130;-67
2022/10/17 11:18:23;;;;;;;43.35;26.33;;;16.80;99.90;;;;;;4905240;29;20116;-67
2022/10/17 11:21:37;;;;;;;32.47;24.45;;;16.80;99.90;;;;;;4937784;28;20047;-67
2022/10/17 11:24:09;;;;;;;37.17;26.85;;;16.90;99.90;;;;;;4898653;29;20585;-67
2022/10/17 11:26:54;;;;;;;33.03;25.10;;;16.90;99.90;;;;;;4895515;29;20056;-67
2022/10/17 11:29:24;;;;;;;38.30;27.55;;;17.00;99.90;;;;;;4918299;29;20051;-67
2022/10/17 11:31:52;;;;;;;42.15;25.30;;;17.00;99.90;;;;;;4934909;29;20600;-67
2022/10/17 11:34:21;;;;;;;;;;;17.00;99.90;;;;;;4941486;28;20048;-67
2022/10/17 11:36:50;;;;;;;32.55;23.58;;;16.90;99.90;;;;;;4931470;29;20357;-67
2022/10/17 11:39:26;;;;;;;38.00;25.92;;;16.90;99.90;;;;;;4930644;29;20123;-67
2022/10/17 11:41:57;;;;;;;36.47;24.48;;;16.90;99.90;;;;;;4929855;29;20071;-68
2022/10/17 11:44:30;;;;;;;33.80;24.80;;;16.90;99.90;;;;;;4930897;29;20519;-67
2022/10/17 11:47:00;;;;;;;43.42;24.85;;;17.00;99.90;;;;;;4927972;29;20070;-67
2022/10/17 11:49:37;;;;;;;37.35;25.15;;;16.90;99.90;;;;;;4930293;29;20224;-67
2022/10/17 11:52:34;;;;;;;37.97;24.83;;;16.90;99.90;;;;;;4930396;29;20044;-67
2022/10/17 11:55:11;;;;;;;45.70;25.77;;;16.90;99.90;;;;;;4927348;29;20051;-68
2022/10/17 11:57:53;;;;;;;33.42;23.60;;;16.90;99.90;;;;;;4932152;29;20050;-67
2022/10/17 12:00:35;;;;;;;33.53;23.77;;;16.80;99.90;;;;;;4930349;29;20374;-68
2022/10/17 12:03:07;;;;;;;39.83;23.73;;;16.90;99.90;;;;;;4931310;29;20484;-67
2022/10/17 12:05:55;;;;;;;32.17;24.55;;;16.90;99.90;;;;;;4926408;29;20050;-67
2022/10/17 12:08:38;;;;;;;34.58;25.50;;;16.80;99.90;;;;;;4932811;29;20044;-67
2022/10/17 12:11:24;;;;;;;36.88;25.27;;;16.80;99.90;;;;;;4929744;29;20055;-67
2022/10/17 12:13:53;;;;;;;37.22;26.02;;;16.80;99.90;;;;;;4929630;29;20051;-67
2022/10/17 12:16:18;;;;;;;35.13;25.10;;;16.80;99.90;;;;;;4930478;29;20109;-67
2022/10/17 12:18:50;;;;;;;33.30;23.35;;;16.80;99.90;;;;;;4931024;29;20448;-68
2022/10/17 12:21:16;;;;;;;33.10;24.35;;;16.70;99.90;;;;;;4940898;29;20078;-68
2022/10/17 12:23:51;;;;;;;35.35;23.15;;;16.70;99.90;;;;;;4936748;29;20500;-67
2022/10/17 12:26:26;;;;;;;34.25;21.83;;;16.70;99.90;;;;;;4930731;28;20854;-67
2022/10/17 12:28:52;;;;;;;30.83;23.55;;;16.80;99.90;;;;;;4929653;29;20060;-67
2022/10/17 12:31:18;;;;;;;36.80;22.58;;;16.80;99.90;;;;;;4929402;29;20043;-68
2022/10/17 12:33:48;;;;;;;34.90;22.05;;;16.70;99.90;;;;;;4932631;28;20063;-68
2022/10/17 12:36:17;;;;;;;47.92;23.90;;;16.80;99.90;;;;;;4930682;28;20051;-67
2022/10/17 12:38:44;;;;;;;32.58;22.67;;;16.80;99.90;;;;;;4928751;29;20047;-67
2022/10/17 12:41:10;;;;;;;34.03;24.75;;;16.90;99.90;;;;;;4929774;29;20043;-68
2022/10/17 12:43:50;;;;;;;33.40;21.55;;;16.90;99.90;;;;;;4927792;29;20416;-67
2022/10/17 12:46:54;;;;;;;31.13;22.95;;;16.80;99.90;;;;;;4931662;29;20051;-68
2022/10/17 12:49:35;;;;;;;26.38;20.15;;;16.90;99.90;;;;;;4928880;29;20051;-67
2022/10/17 12:52:19;;;;;;;33.92;21.58;;;16.90;99.90;;;;;;4933328;29;20043;-67
2022/10/17 12:55:17;;;;;;;28.65;19.90;;;16.90;99.90;;;;;;4931051;29;20047;-68